Laganborg — PHQB — position and weather

sailwx.info

Track history (hours):
 
Tides and Currents Weather Stations Pressure Air Temp Water Temp Dewpoint Dewpoint Depression Visibility Wind Speed Wind Dir Waves Ship Positions

Laganborg

Last reported at 2017-Nov-15 22:15 UTC. Time now 2017-Nov-17 17:59 UTC.
Position N 60°19' E 019°01'.

Length 123 m; draft 6.4 m.

Type: Cargo ship. MMSI: 244297000.

Date/timePositionNaut miles runAvg speedWind from/ knotsBaromVisibWave heightAir tempDewpointWater temp
2017-Nov-15 22:15N 60°19' E 019°01'4 9.8
2017-Nov-15 21:50N 60°15' E 019°03'3 9.8
2017-Nov-15 21:30N 60°12' E 019°05'5 9.7
2017-Nov-15 21:00N 60°08' E 019°11'5 9.7
2017-Nov-15 20:30N 60°04' E 019°18'5 9.7
2017-Nov-15 20:00N 60°00' E 019°24'6 9.6
2017-Nov-15 19:24N 59°56' E 019°31'4 9.6
2017-Nov-15 18:58N 59°53' E 019°37'5 9.8
2017-Nov-15 18:25N 59°49' E 019°44'43 8.8
2017-Nov-15 13:29N 59°34' E 021°05'5 9.5
2017-Nov-15 13:01N 59°34' E 021°13'5 9.7
2017-Nov-15 12:31N 59°33' E 021°23'5 9.8
2017-Nov-15 12:00N 59°32' E 021°33'510.0
2017-Nov-15 11:30N 59°32' E 021°42'5 9.9
2017-Nov-15 11:00N 59°32' E 021°52'510.0
2017-Nov-15 10:30N 59°33' E 022°02'510.0
2017-Nov-15 10:00N 59°33' E 022°12'27 9.8
2017-Nov-15 07:12N 59°37' E 023°06'2 9.4
2017-Nov-15 07:00N 59°38' E 023°09'4 8.9
2017-Nov-15 06:30N 59°39' E 023°18'4 8.9
2017-Nov-15 06:01N 59°40' E 023°26'4 8.9
2017-Nov-15 05:30N 59°41' E 023°35'4 9.0
2017-Nov-15 05:00N 59°42' E 023°43'5 9.1
2017-Nov-15 04:29N 59°43' E 023°52'4 9.1
2017-Nov-15 04:01N 59°44' E 024°01'5 9.2
2017-Nov-15 03:30N 59°45' E 024°10'5 9.1
2017-Nov-15 03:00N 59°47' E 024°18'4 8.8
2017-Nov-15 02:30N 59°47' E 024°27'4 8.7
2017-Nov-15 02:00N 59°48' E 024°35'4 8.6
2017-Nov-15 01:30N 59°49' E 024°44'4 8.7
2017-Nov-15 01:00N 59°50' E 024°52'4 8.9
2017-Nov-15 00:30N 59°51' E 025°01'5 9.1
2017-Nov-15 00:00N 59°52' E 025°10'5 9.1
2017-Nov-14 23:30N 59°53' E 025°19'7 9.0
2017-Nov-14 22:47N 59°54' E 025°32'2110.1
2017-Nov-14 20:43N 59°59' E 026°12'210.7
2017-Nov-14 20:31N 59°59' E 026°16'4 8.8
2017-Nov-14 20:00N 60°00' E 026°25'510.2
2017-Nov-14 19:30N 60°02' E 026°35'510.9
2017-Nov-14 19:00N 60°01' E 026°45'511.0
2017-Nov-14 18:30N 59°60' E 026°56'510.4
2017-Nov-14 18:00N 60°00' E 027°07'611.1
2017-Nov-14 17:30N 60°03' E 027°16'611.2
2017-Nov-14 17:00N 60°06' E 027°26'511.0
2017-Nov-14 16:30N 60°09' E 027°35'611.3
2017-Nov-14 16:00N 60°12' E 027°45'510.9
2017-Nov-14 15:30N 60°11' E 027°56'611.2
2017-Nov-14 15:00N 60°10' E 028°07'611.3
2017-Nov-14 14:30N 60°08' E 028°17'611.2
2017-Nov-14 14:00N 60°04' E 028°26'611.1
2017-Nov-14 13:30N 60°03' E 028°37'713.1
2017-Nov-14 13:00N 60°03' E 028°50'5 9.7
2017-Nov-14 12:30N 60°02' E 028°60'511.1
2017-Nov-14 12:00N 60°02' E 029°11'1810.5
2017-Nov-14 10:19N 59°59' E 029°46'311.0
2017-Nov-14 10:01N 59°57' E 029°52'611.4
2017-Nov-14 09:30N 59°55' E 030°02'4 8.3
2017-Nov-14 09:00N 59°53' E 030°10'1 1.6
2017-Nov-14 08:28N 59°53' E 030°11'0 0.0
2017-Nov-14 07:58N 59°53' E 030°11'0 0.0
2017-Nov-14 07:28N 59°53' E 030°11'0 0.0
2017-Nov-14 06:58N 59°53' E 030°11'0 0.0
2017-Nov-14 06:28N 59°53' E 030°11'0 0.0
2017-Nov-14 05:58N 59°53' E 030°11'0 0.0
2017-Nov-14 05:28N 59°53' E 030°11'0 0.0
2017-Nov-14 04:58N 59°53' E 030°11'0 0.0
2017-Nov-14 04:25N 59°53' E 030°11'0 0.0
2017-Nov-14 03:58N 59°53' E 030°11'0 0.0
2017-Nov-14 03:28N 59°53' E 030°11'0 0.0
2017-Nov-14 02:58N 59°53' E 030°11'0 0.0
2017-Nov-14 02:28N 59°53' E 030°11'0 0.0
2017-Nov-14 01:58N 59°53' E 030°11'0 0.0
2017-Nov-14 01:28N 59°53' E 030°11'0 0.0
2017-Nov-14 00:58N 59°53' E 030°11'0 0.0
2017-Nov-14 00:25N 59°53' E 030°11'0 0.0
2017-Nov-13 23:58N 59°53' E 030°11'0 0.0
2017-Nov-13 23:28N 59°53' E 030°11'0 0.0
2017-Nov-13 22:58N 59°53' E 030°11'0 0.0
2017-Nov-13 22:25N 59°53' E 030°11'0 0.0
2017-Nov-13 21:58N 59°53' E 030°11'97 4.9
2017-Nov-13 02:00N 59°58' E 026°58'5 9.6
2017-Nov-13 01:30N 59°59' E 026°48'5 9.4
2017-Nov-13 01:00N 59°59' E 026°39'5 9.7
2017-Nov-13 00:30N 59°58' E 026°30'5 9.8
2017-Nov-13 00:00N 59°57' E 026°20'3110.5
2017-Nov-12 21:03N 59°49' E 025°20'110.8
2017-Nov-12 21:00N 59°49' E 025°19'611.7
2017-Nov-12 20:30N 59°48' E 025°07'611.8
2017-Nov-12 20:00N 59°46' E 024°56'612.1
2017-Nov-12 19:31N 59°45' E 024°44'611.7
2017-Nov-12 19:01N 59°44' E 024°33'612.0
2017-Nov-12 18:30N 59°43' E 024°21'612.0
2017-Nov-12 17:59N 59°41' E 024°09'612.1
2017-Nov-12 17:29N 59°39' E 023°58'612.1
2017-Nov-12 17:00N 59°37' E 023°47'612.0
2017-Nov-12 16:30N 59°35' E 023°36'612.0
2017-Nov-12 16:00N 59°33' E 023°25'611.9
2017-Nov-12 15:28N 59°31' E 023°13'29211.4
2017-Nov-11 13:58N 56°04' E 016°47'511.9
2017-Nov-11 13:30N 56°01' E 016°39'612.1
2017-Nov-11 13:00N 55°58' E 016°29'612.2
2017-Nov-11 12:30N 55°55' E 016°20'612.2
2017-Nov-11 12:00N 55°52' E 016°10'612.1
2017-Nov-11 11:30N 55°49' E 016°01'612.2
2017-Nov-11 11:00N 55°46' E 015°51'612.0
2017-Nov-11 10:30N 55°44' E 015°42'612.0
2017-Nov-11 10:00N 55°41' E 015°33'612.1
2017-Nov-11 09:30N 55°38' E 015°23'612.1
2017-Nov-11 09:00N 55°35' E 015°14'611.8
2017-Nov-11 08:30N 55°32' E 015°05'812.0
2017-Nov-11 07:51N 55°28' E 014°52'412.0
2017-Nov-11 07:30N 55°26' E 014°46'611.9
2017-Nov-11 07:00N 55°23' E 014°37'611.8
2017-Nov-11 06:28N 55°18' E 014°30'511.3
2017-Nov-11 06:00N 55°14' E 014°25'611.0
2017-Nov-11 05:30N 55°11' E 014°16'1211.6
2017-Nov-11 04:31N 55°10' E 013°56'111.6
2017-Nov-11 04:26N 55°10' E 013°55'2711.7
2017-Nov-11 02:09N 55°14' E 013°09'212.3
2017-Nov-11 02:00N 55°14' E 013°06'612.7
2017-Nov-11 01:30N 55°15' E 012°55'612.9
2017-Nov-11 01:00N 55°17' E 012°44'510.9
2017-Nov-11 00:30N 55°21' E 012°38'612.8
2017-Nov-11 00:00N 55°27' E 012°39'612.2
2017-Nov-10 23:30N 55°33' E 012°42'713.9
2017-Nov-10 23:00N 55°40' E 012°41'613.0
2017-Nov-10 22:30N 55°46' E 012°42'612.8
2017-Nov-10 22:00N 55°53' E 012°39'612.7
2017-Nov-10 21:30N 55°59' E 012°37'510.8
2017-Nov-10 21:00N 56°04' E 012°36'713.3
2017-Nov-10 20:30N 56°08' E 012°27'713.4
2017-Nov-10 20:00N 56°12' E 012°17'6511.6
2017-Nov-10 14:25N 57°12' E 011°34'512.2
2017-Nov-10 13:59N 57°17' E 011°30'612.2
2017-Nov-10 13:30N 57°23' E 011°27'611.8
2017-Nov-10 13:00N 57°28' E 011°22'611.9
2017-Nov-10 12:31N 57°32' E 011°14'611.9
2017-Nov-10 12:00N 57°36' E 011°06'611.7
2017-Nov-10 11:30N 57°40' E 010°58'611.9
2017-Nov-10 10:59N 57°44' E 010°49'612.1
2017-Nov-10 10:30N 57°47' E 010°39'713.3
2017-Nov-10 10:00N 57°45' E 010°27'17312.3
2017-Nov-09 19:54N 55°42' E 006°45'512.2
2017-Nov-09 19:29N 55°38' E 006°41'612.2
2017-Nov-09 18:59N 55°33' E 006°36'612.2
2017-Nov-09 18:30N 55°28' E 006°30'15312.5
2017-Nov-09 06:13N 53°11' E 004°32'313.9
2017-Nov-09 06:01N 53°08' E 004°30'713.5
2017-Nov-09 05:30N 53°02' E 004°24'613.0
2017-Nov-09 05:01N 52°57' E 004°18'612.8
2017-Nov-09 04:31N 52°51' E 004°14'612.6
2017-Nov-09 04:01N 52°46' E 004°08'612.4
2017-Nov-09 03:31N 52°41' E 004°01'612.2
2017-Nov-09 03:01N 52°37' E 003°54'612.0
2017-Nov-09 02:30N 52°32' E 003°47'5210.9
2017-Nov-08 21:46N 51°45' E 003°16'1112.1
2017-Nov-08 20:51N 51°35' E 003°24'412.9
2017-Nov-08 20:30N 51°31' E 003°27'613.1
2017-Nov-08 20:00N 51°26' E 003°34'510.3
2017-Nov-08 19:30N 51°25' E 003°42'713.5
2017-Nov-08 19:00N 51°21' E 003°51'713.5
2017-Nov-08 18:30N 51°26' E 003°58'510.0
2017-Nov-08 18:01N 51°22' E 004°04'610.9
2017-Nov-08 17:30N 51°23' E 004°13'510.6
2017-Nov-08 17:01N 51°19' E 004°16'3 5.8
2017-Nov-08 16:31N 51°17' E 004°20'0 0.0
2017-Nov-08 16:01N 51°17' E 004°20'0 0.0
2017-Nov-08 15:30N 51°17' E 004°20'0 0.8
2017-Nov-08 15:00N 51°16' E 004°20'2 4.6
2017-Nov-08 14:30N 51°16' E 004°24'0 0.9
2017-Nov-08 13:58N 51°16' E 004°25'0 0.0
2017-Nov-08 13:28N 51°16' E 004°25'0 0.0
2017-Nov-08 12:58N 51°16' E 004°25'0 0.0
2017-Nov-08 12:28N 51°16' E 004°25'0 0.0
2017-Nov-08 11:58N 51°16' E 004°25'0 0.0
2017-Nov-08 11:28N 51°16' E 004°25'0 0.0
2017-Nov-08 10:58N 51°16' E 004°25'0 0.0
2017-Nov-08 10:28N 51°16' E 004°25'0 0.0
2017-Nov-08 09:58N 51°16' E 004°25'0 0.0
2017-Nov-08 09:28N 51°16' E 004°25'0 0.0
2017-Nov-08 08:58N 51°16' E 004°25'0 0.0
2017-Nov-08 08:28N 51°16' E 004°25'0 0.0
2017-Nov-08 07:58N 51°16' E 004°25'0 0.0
2017-Nov-08 07:28N 51°16' E 004°25'0 0.0
2017-Nov-08 06:58N 51°16' E 004°25'0 0.0
2017-Nov-08 06:28N 51°16' E 004°25'0 0.0
2017-Nov-08 05:58N 51°16' E 004°25'0 0.0
2017-Nov-08 05:28N 51°16' E 004°25'0 0.0
2017-Nov-08 04:58N 51°16' E 004°25'0 0.0
2017-Nov-08 04:28N 51°16' E 004°25'0 0.0
2017-Nov-08 03:58N 51°16' E 004°25'0 0.0
2017-Nov-08 03:28N 51°16' E 004°25'0 0.0
2017-Nov-08 02:58N 51°16' E 004°25'0 0.0
2017-Nov-08 02:28N 51°16' E 004°25'0 0.0
2017-Nov-08 01:58N 51°16' E 004°25'0 0.0
2017-Nov-08 01:28N 51°16' E 004°25'0 0.0
2017-Nov-08 00:58N 51°16' E 004°25'0 0.0
2017-Nov-08 00:28N 51°16' E 004°25'0 0.0
2017-Nov-07 23:58N 51°16' E 004°25'0 0.0
2017-Nov-07 23:28N 51°16' E 004°25'0 0.0
2017-Nov-07 22:58N 51°16' E 004°25'0 0.0
2017-Nov-07 22:28N 51°16' E 004°25'0 0.0
2017-Nov-07 21:58N 51°16' E 004°25'0 0.0
2017-Nov-07 21:28N 51°16' E 004°25'0 0.0
2017-Nov-07 20:58N 51°16' E 004°25'0 0.0
2017-Nov-07 20:28N 51°16' E 004°25'0 0.0
2017-Nov-07 19:58N 51°16' E 004°25'0 0.0
2017-Nov-07 19:28N 51°16' E 004°25'0 0.0
2017-Nov-07 18:58N 51°16' E 004°25'0 0.0
2017-Nov-07 18:28N 51°16' E 004°25'0 0.0
2017-Nov-07 17:58N 51°16' E 004°25'0 0.0
2017-Nov-07 17:28N 51°16' E 004°25'0 0.0
2017-Nov-07 16:58N 51°16' E 004°25'0 0.0
2017-Nov-07 16:28N 51°16' E 004°25'0 0.0
2017-Nov-07 15:58N 51°16' E 004°25'0 0.0
2017-Nov-07 15:25N 51°16' E 004°25'0 0.0
2017-Nov-07 14:58N 51°16' E 004°25'0 0.0
2017-Nov-07 14:28N 51°16' E 004°25'0 0.0
2017-Nov-07 13:58N 51°16' E 004°25'0 0.0
2017-Nov-07 13:28N 51°16' E 004°25'0 0.0
2017-Nov-07 12:58N 51°16' E 004°25'0 0.0
2017-Nov-07 12:28N 51°16' E 004°25'0 0.0
2017-Nov-07 11:58N 51°16' E 004°25'0 0.0
2017-Nov-07 11:28N 51°16' E 004°25'0 0.0
2017-Nov-07 10:55N 51°16' E 004°25'0 0.0
2017-Nov-07 10:28N 51°16' E 004°25'0 0.0
2017-Nov-07 09:58N 51°16' E 004°25'0 0.0
2017-Nov-07 09:28N 51°16' E 004°25'0 0.0
2017-Nov-07 08:58N 51°16' E 004°25'0 0.0
2017-Nov-07 08:28N 51°16' E 004°25'0 0.0
2017-Nov-07 07:58N 51°16' E 004°25'0 0.0
2017-Nov-07 07:28N 51°16' E 004°25'0 0.0
2017-Nov-07 06:58N 51°16' E 004°25'0 0.0
2017-Nov-07 06:28N 51°16' E 004°25'0 0.0
2017-Nov-07 05:55N 51°16' E 004°25'0 0.0
2017-Nov-07 05:28N 51°16' E 004°25'0 0.0
2017-Nov-07 04:58N 51°16' E 004°25'0 0.0
2017-Nov-07 04:28N 51°16' E 004°25'0 0.0
2017-Nov-07 03:58N 51°16' E 004°25'0 0.0
2017-Nov-07 03:28N 51°16' E 004°25'0 0.0
2017-Nov-07 02:58N 51°16' E 004°25'0 0.0
2017-Nov-07 02:28N 51°16' E 004°25'0 0.0
2017-Nov-07 01:58N 51°16' E 004°25'0 0.0
2017-Nov-07 01:28N 51°16' E 004°25'0 0.0
2017-Nov-07 00:58N 51°16' E 004°25'0 0.0
2017-Nov-07 00:28N 51°16' E 004°25'0 0.0
2017-Nov-06 23:58N 51°16' E 004°25'0 0.0
2017-Nov-06 23:28N 51°16' E 004°25'0 0.0
2017-Nov-06 22:58N 51°16' E 004°25'0 0.0
2017-Nov-06 22:28N 51°16' E 004°25'0 0.1
2017-Nov-06 21:58N 51°16' E 004°24'0 0.1
2017-Nov-06 21:28N 51°16' E 004°25'0 0.0
2017-Nov-06 20:58N 51°16' E 004°25'0 0.0
2017-Nov-06 20:28N 51°16' E 004°25'0 0.0
2017-Nov-06 02:30N 51°16' E 004°25'0 0.0
2017-Nov-06 02:00N 51°16' E 004°25'0 0.0
2017-Nov-06 01:30N 51°16' E 004°25'0 0.0
2017-Nov-06 01:00N 51°16' E 004°25'0 0.0
2017-Nov-06 00:30N 51°16' E 004°25'0 0.0
2017-Nov-06 00:00N 51°16' E 004°25'0 0.0
2017-Nov-05 23:30N 51°16' E 004°25'0 0.0
2017-Nov-05 23:00N 51°16' E 004°25'0 0.0
2017-Nov-05 22:30N 51°16' E 004°25'  
Track history (hours):
 
Tides and Currents Weather Stations Pressure Air Temp Water Temp Dewpoint Dewpoint Depression Visibility Wind Speed Wind Dir Waves Ship Positions

Laganborg

Last reported at 2017-Nov-15 22:15 UTC. Time now 2017-Nov-17 17:59 UTC.
Position N 60°19' E 019°01'.

Length 123 m; draft 6.4 m.

Type: Cargo ship. MMSI: 244297000.

Date/timePositionNaut miles runAvg speedWind from/ knotsBaromVisibWave heightAir tempDewpointWater temp
2017-Nov-15 22:15N 60°19' E 019°01'4 9.8
2017-Nov-15 21:50N 60°15' E 019°03'3 9.8
2017-Nov-15 21:30N 60°12' E 019°05'5 9.7
2017-Nov-15 21:00N 60°08' E 019°11'5 9.7
2017-Nov-15 20:30N 60°04' E 019°18'5 9.7
2017-Nov-15 20:00N 60°00' E 019°24'6 9.6
2017-Nov-15 19:24N 59°56' E 019°31'4 9.6
2017-Nov-15 18:58N 59°53' E 019°37'5 9.8
2017-Nov-15 18:25N 59°49' E 019°44'43 8.8
2017-Nov-15 13:29N 59°34' E 021°05'5 9.5
2017-Nov-15 13:01N 59°34' E 021°13'5 9.7
2017-Nov-15 12:31N 59°33' E 021°23'5 9.8
2017-Nov-15 12:00N 59°32' E 021°33'510.0
2017-Nov-15 11:30N 59°32' E 021°42'5 9.9
2017-Nov-15 11:00N 59°32' E 021°52'510.0
2017-Nov-15 10:30N 59°33' E 022°02'510.0
2017-Nov-15 10:00N 59°33' E 022°12'27 9.8
2017-Nov-15 07:12N 59°37' E 023°06'2 9.4
2017-Nov-15 07:00N 59°38' E 023°09'4 8.9
2017-Nov-15 06:30N 59°39' E 023°18'4 8.9
2017-Nov-15 06:01N 59°40' E 023°26'4 8.9
2017-Nov-15 05:30N 59°41' E 023°35'4 9.0
2017-Nov-15 05:00N 59°42' E 023°43'5 9.1
2017-Nov-15 04:29N 59°43' E 023°52'4 9.1
2017-Nov-15 04:01N 59°44' E 024°01'5 9.2
2017-Nov-15 03:30N 59°45' E 024°10'5 9.1
2017-Nov-15 03:00N 59°47' E 024°18'4 8.8
2017-Nov-15 02:30N 59°47' E 024°27'4 8.7
2017-Nov-15 02:00N 59°48' E 024°35'4 8.6
2017-Nov-15 01:30N 59°49' E 024°44'4 8.7
2017-Nov-15 01:00N 59°50' E 024°52'4 8.9
2017-Nov-15 00:30N 59°51' E 025°01'5 9.1
2017-Nov-15 00:00N 59°52' E 025°10'5 9.1
2017-Nov-14 23:30N 59°53' E 025°19'7 9.0
2017-Nov-14 22:47N 59°54' E 025°32'2110.1
2017-Nov-14 20:43N 59°59' E 026°12'210.7
2017-Nov-14 20:31N 59°59' E 026°16'4 8.8
2017-Nov-14 20:00N 60°00' E 026°25'510.2
2017-Nov-14 19:30N 60°02' E 026°35'510.9
2017-Nov-14 19:00N 60°01' E 026°45'511.0
2017-Nov-14 18:30N 59°60' E 026°56'510.4
2017-Nov-14 18:00N 60°00' E 027°07'611.1
2017-Nov-14 17:30N 60°03' E 027°16'611.2
2017-Nov-14 17:00N 60°06' E 027°26'511.0
2017-Nov-14 16:30N 60°09' E 027°35'611.3
2017-Nov-14 16:00N 60°12' E 027°45'510.9
2017-Nov-14 15:30N 60°11' E 027°56'611.2
2017-Nov-14 15:00N 60°10' E 028°07'611.3
2017-Nov-14 14:30N 60°08' E 028°17'611.2
2017-Nov-14 14:00N 60°04' E 028°26'611.1
2017-Nov-14 13:30N 60°03' E 028°37'713.1
2017-Nov-14 13:00N 60°03' E 028°50'5 9.7
2017-Nov-14 12:30N 60°02' E 028°60'511.1
2017-Nov-14 12:00N 60°02' E 029°11'1810.5
2017-Nov-14 10:19N 59°59' E 029°46'311.0
2017-Nov-14 10:01N 59°57' E 029°52'611.4
2017-Nov-14 09:30N 59°55' E 030°02'4 8.3
2017-Nov-14 09:00N 59°53' E 030°10'1 1.6
2017-Nov-14 08:28N 59°53' E 030°11'0 0.0
2017-Nov-14 07:58N 59°53' E 030°11'0 0.0
2017-Nov-14 07:28N 59°53' E 030°11'0 0.0
2017-Nov-14 06:58N 59°53' E 030°11'0 0.0
2017-Nov-14 06:28N 59°53' E 030°11'0 0.0
2017-Nov-14 05:58N 59°53' E 030°11'0 0.0
2017-Nov-14 05:28N 59°53' E 030°11'0 0.0
2017-Nov-14 04:58N 59°53' E 030°11'0 0.0
2017-Nov-14 04:25N 59°53' E 030°11'0 0.0
2017-Nov-14 03:58N 59°53' E 030°11'0 0.0
2017-Nov-14 03:28N 59°53' E 030°11'0 0.0
2017-Nov-14 02:58N 59°53' E 030°11'0 0.0
2017-Nov-14 02:28N 59°53' E 030°11'0 0.0
2017-Nov-14 01:58N 59°53' E 030°11'0 0.0
2017-Nov-14 01:28N 59°53' E 030°11'0 0.0
2017-Nov-14 00:58N 59°53' E 030°11'0 0.0
2017-Nov-14 00:25N 59°53' E 030°11'0 0.0
2017-Nov-13 23:58N 59°53' E 030°11'0 0.0
2017-Nov-13 23:28N 59°53' E 030°11'0 0.0
2017-Nov-13 22:58N 59°53' E 030°11'0 0.0
2017-Nov-13 22:25N 59°53' E 030°11'0 0.0
2017-Nov-13 21:58N 59°53' E 030°11'97 4.9
2017-Nov-13 02:00N 59°58' E 026°58'5 9.6
2017-Nov-13 01:30N 59°59' E 026°48'5 9.4
2017-Nov-13 01:00N 59°59' E 026°39'5 9.7
2017-Nov-13 00:30N 59°58' E 026°30'5 9.8
2017-Nov-13 00:00N 59°57' E 026°20'3110.5
2017-Nov-12 21:03N 59°49' E 025°20'110.8
2017-Nov-12 21:00N 59°49' E 025°19'611.7
2017-Nov-12 20:30N 59°48' E 025°07'611.8
2017-Nov-12 20:00N 59°46' E 024°56'612.1
2017-Nov-12 19:31N 59°45' E 024°44'611.7
2017-Nov-12 19:01N 59°44' E 024°33'612.0
2017-Nov-12 18:30N 59°43' E 024°21'612.0
2017-Nov-12 17:59N 59°41' E 024°09'612.1
2017-Nov-12 17:29N 59°39' E 023°58'612.1
2017-Nov-12 17:00N 59°37' E 023°47'612.0
2017-Nov-12 16:30N 59°35' E 023°36'612.0
2017-Nov-12 16:00N 59°33' E 023°25'611.9
2017-Nov-12 15:28N 59°31' E 023°13'29211.4
2017-Nov-11 13:58N 56°04' E 016°47'511.9
2017-Nov-11 13:30N 56°01' E 016°39'612.1
2017-Nov-11 13:00N 55°58' E 016°29'612.2
2017-Nov-11 12:30N 55°55' E 016°20'612.2
2017-Nov-11 12:00N 55°52' E 016°10'612.1
2017-Nov-11 11:30N 55°49' E 016°01'612.2
2017-Nov-11 11:00N 55°46' E 015°51'612.0
2017-Nov-11 10:30N 55°44' E 015°42'612.0
2017-Nov-11 10:00N 55°41' E 015°33'612.1
2017-Nov-11 09:30N 55°38' E 015°23'612.1
2017-Nov-11 09:00N 55°35' E 015°14'611.8
2017-Nov-11 08:30N 55°32' E 015°05'812.0
2017-Nov-11 07:51N 55°28' E 014°52'412.0
2017-Nov-11 07:30N 55°26' E 014°46'611.9
2017-Nov-11 07:00N 55°23' E 014°37'611.8
2017-Nov-11 06:28N 55°18' E 014°30'511.3
2017-Nov-11 06:00N 55°14' E 014°25'611.0
2017-Nov-11 05:30N 55°11' E 014°16'1211.6
2017-Nov-11 04:31N 55°10' E 013°56'111.6
2017-Nov-11 04:26N 55°10' E 013°55'2711.7
2017-Nov-11 02:09N 55°14' E 013°09'212.3
2017-Nov-11 02:00N 55°14' E 013°06'612.7
2017-Nov-11 01:30N 55°15' E 012°55'612.9
2017-Nov-11 01:00N 55°17' E 012°44'510.9
2017-Nov-11 00:30N 55°21' E 012°38'612.8
2017-Nov-11 00:00N 55°27' E 012°39'612.2
2017-Nov-10 23:30N 55°33' E 012°42'713.9
2017-Nov-10 23:00N 55°40' E 012°41'613.0
2017-Nov-10 22:30N 55°46' E 012°42'612.8
2017-Nov-10 22:00N 55°53' E 012°39'612.7
2017-Nov-10 21:30N 55°59' E 012°37'510.8
2017-Nov-10 21:00N 56°04' E 012°36'713.3
2017-Nov-10 20:30N 56°08' E 012°27'713.4
2017-Nov-10 20:00N 56°12' E 012°17'6511.6
2017-Nov-10 14:25N 57°12' E 011°34'512.2
2017-Nov-10 13:59N 57°17' E 011°30'612.2
2017-Nov-10 13:30N 57°23' E 011°27'611.8
2017-Nov-10 13:00N 57°28' E 011°22'611.9
2017-Nov-10 12:31N 57°32' E 011°14'611.9
2017-Nov-10 12:00N 57°36' E 011°06'611.7
2017-Nov-10 11:30N 57°40' E 010°58'611.9
2017-Nov-10 10:59N 57°44' E 010°49'612.1
2017-Nov-10 10:30N 57°47' E 010°39'713.3
2017-Nov-10 10:00N 57°45' E 010°27'17312.3
2017-Nov-09 19:54N 55°42' E 006°45'512.2
2017-Nov-09 19:29N 55°38' E 006°41'612.2
2017-Nov-09 18:59N 55°33' E 006°36'612.2
2017-Nov-09 18:30N 55°28' E 006°30'15312.5
2017-Nov-09 06:13N 53°11' E 004°32'313.9
2017-Nov-09 06:01N 53°08' E 004°30'713.5
2017-Nov-09 05:30N 53°02' E 004°24'613.0
2017-Nov-09 05:01N 52°57' E 004°18'612.8
2017-Nov-09 04:31N 52°51' E 004°14'612.6
2017-Nov-09 04:01N 52°46' E 004°08'612.4
2017-Nov-09 03:31N 52°41' E 004°01'612.2
2017-Nov-09 03:01N 52°37' E 003°54'612.0
2017-Nov-09 02:30N 52°32' E 003°47'5210.9
2017-Nov-08 21:46N 51°45' E 003°16'1112.1
2017-Nov-08 20:51N 51°35' E 003°24'412.9
2017-Nov-08 20:30N 51°31' E 003°27'613.1
2017-Nov-08 20:00N 51°26' E 003°34'510.3
2017-Nov-08 19:30N 51°25' E 003°42'713.5
2017-Nov-08 19:00N 51°21' E 003°51'713.5
2017-Nov-08 18:30N 51°26' E 003°58'510.0
2017-Nov-08 18:01N 51°22' E 004°04'610.9
2017-Nov-08 17:30N 51°23' E 004°13'510.6
2017-Nov-08 17:01N 51°19' E 004°16'3 5.8
2017-Nov-08 16:31N 51°17' E 004°20'0 0.0
2017-Nov-08 16:01N 51°17' E 004°20'0 0.0
2017-Nov-08 15:30N 51°17' E 004°20'0 0.8
2017-Nov-08 15:00N 51°16' E 004°20'2 4.6
2017-Nov-08 14:30N 51°16' E 004°24'0 0.9
2017-Nov-08 13:58N 51°16' E 004°25'0 0.0
2017-Nov-08 13:28N 51°16' E 004°25'0 0.0
2017-Nov-08 12:58N 51°16' E 004°25'0 0.0
2017-Nov-08 12:28N 51°16' E 004°25'0 0.0
2017-Nov-08 11:58N 51°16' E 004°25'0 0.0
2017-Nov-08 11:28N 51°16' E 004°25'0 0.0
2017-Nov-08 10:58N 51°16' E 004°25'0 0.0
2017-Nov-08 10:28N 51°16' E 004°25'0 0.0
2017-Nov-08 09:58N 51°16' E 004°25'0 0.0
2017-Nov-08 09:28N 51°16' E 004°25'0 0.0
2017-Nov-08 08:58N 51°16' E 004°25'0 0.0
2017-Nov-08 08:28N 51°16' E 004°25'0 0.0
2017-Nov-08 07:58N 51°16' E 004°25'0 0.0
2017-Nov-08 07:28N 51°16' E 004°25'0 0.0
2017-Nov-08 06:58N 51°16' E 004°25'0 0.0
2017-Nov-08 06:28N 51°16' E 004°25'0 0.0
2017-Nov-08 05:58N 51°16' E 004°25'0 0.0
2017-Nov-08 05:28N 51°16' E 004°25'0 0.0
2017-Nov-08 04:58N 51°16' E 004°25'0 0.0
2017-Nov-08 04:28N 51°16' E 004°25'0 0.0
2017-Nov-08 03:58N 51°16' E 004°25'0 0.0
2017-Nov-08 03:28N 51°16' E 004°25'0 0.0
2017-Nov-08 02:58N 51°16' E 004°25'0 0.0
2017-Nov-08 02:28N 51°16' E 004°25'0 0.0
2017-Nov-08 01:58N 51°16' E 004°25'0 0.0
2017-Nov-08 01:28N 51°16' E 004°25'0 0.0
2017-Nov-08 00:58N 51°16' E 004°25'0 0.0
2017-Nov-08 00:28N 51°16' E 004°25'0 0.0
2017-Nov-07 23:58N 51°16' E 004°25'0 0.0
2017-Nov-07 23:28N 51°16' E 004°25'0 0.0
2017-Nov-07 22:58N 51°16' E 004°25'0 0.0
2017-Nov-07 22:28N 51°16' E 004°25'0 0.0
2017-Nov-07 21:58N 51°16' E 004°25'0 0.0
2017-Nov-07 21:28N 51°16' E 004°25'0 0.0
2017-Nov-07 20:58N 51°16' E 004°25'0 0.0
2017-Nov-07 20:28N 51°16' E 004°25'0 0.0
2017-Nov-07 19:58N 51°16' E 004°25'0 0.0
2017-Nov-07 19:28N 51°16' E 004°25'0 0.0
2017-Nov-07 18:58N 51°16' E 004°25'0 0.0
2017-Nov-07 18:28N 51°16' E 004°25'0 0.0
2017-Nov-07 17:58N 51°16' E 004°25'0 0.0
2017-Nov-07 17:28N 51°16' E 004°25'0 0.0
2017-Nov-07 16:58N 51°16' E 004°25'0 0.0
2017-Nov-07 16:28N 51°16' E 004°25'0 0.0
2017-Nov-07 15:58N 51°16' E 004°25'0 0.0
2017-Nov-07 15:25N 51°16' E 004°25'0 0.0
2017-Nov-07 14:58N 51°16' E 004°25'0 0.0
2017-Nov-07 14:28N 51°16' E 004°25'0 0.0
2017-Nov-07 13:58N 51°16' E 004°25'0 0.0
2017-Nov-07 13:28N 51°16' E 004°25'0 0.0
2017-Nov-07 12:58N 51°16' E 004°25'0 0.0
2017-Nov-07 12:28N 51°16' E 004°25'0 0.0
2017-Nov-07 11:58N 51°16' E 004°25'0 0.0
2017-Nov-07 11:28N 51°16' E 004°25'0 0.0
2017-Nov-07 10:55N 51°16' E 004°25'0 0.0
2017-Nov-07 10:28N 51°16' E 004°25'0 0.0
2017-Nov-07 09:58N 51°16' E 004°25'0 0.0
2017-Nov-07 09:28N 51°16' E 004°25'0 0.0
2017-Nov-07 08:58N 51°16' E 004°25'0 0.0
2017-Nov-07 08:28N 51°16' E 004°25'0 0.0
2017-Nov-07 07:58N 51°16' E 004°25'0 0.0
2017-Nov-07 07:28N 51°16' E 004°25'0 0.0
2017-Nov-07 06:58N 51°16' E 004°25'0 0.0
2017-Nov-07 06:28N 51°16' E 004°25'0 0.0
2017-Nov-07 05:55N 51°16' E 004°25'0 0.0
2017-Nov-07 05:28N 51°16' E 004°25'0 0.0
2017-Nov-07 04:58N 51°16' E 004°25'0 0.0
2017-Nov-07 04:28N 51°16' E 004°25'0 0.0
2017-Nov-07 03:58N 51°16' E 004°25'0 0.0
2017-Nov-07 03:28N 51°16' E 004°25'0 0.0
2017-Nov-07 02:58N 51°16' E 004°25'0 0.0
2017-Nov-07 02:28N 51°16' E 004°25'0 0.0
2017-Nov-07 01:58N 51°16' E 004°25'0 0.0
2017-Nov-07 01:28N 51°16' E 004°25'0 0.0
2017-Nov-07 00:58N 51°16' E 004°25'0 0.0
2017-Nov-07 00:28N 51°16' E 004°25'0 0.0
2017-Nov-06 23:58N 51°16' E 004°25'0 0.0
2017-Nov-06 23:28N 51°16' E 004°25'0 0.0
2017-Nov-06 22:58N 51°16' E 004°25'0 0.0
2017-Nov-06 22:28N 51°16' E 004°25'0 0.1
2017-Nov-06 21:58N 51°16' E 004°24'0 0.1
2017-Nov-06 21:28N 51°16' E 004°25'0 0.0
2017-Nov-06 20:58N 51°16' E 004°25'0 0.0
2017-Nov-06 20:28N 51°16' E 004°25'0 0.0
2017-Nov-06 02:30N 51°16' E 004°25'0 0.0
2017-Nov-06 02:00N 51°16' E 004°25'0 0.0
2017-Nov-06 01:30N 51°16' E 004°25'0 0.0
2017-Nov-06 01:00N 51°16' E 004°25'0 0.0
2017-Nov-06 00:30N 51°16' E 004°25'0 0.0
2017-Nov-06 00:00N 51°16' E 004°25'0 0.0
2017-Nov-05 23:30N 51°16' E 004°25'0 0.0
2017-Nov-05 23:00N 51°16' E 004°25'0 0.0
2017-Nov-05 22:30N 51°16' E 004°25'  

Dump ship's entire track history